Shaker Heights, OH

9:02 AM EDT on July 05, 2015 (GMT -0400)
Cuyahoga County Skywarn | | Change Station
CLOSE
Current Station
Personal Weather Station
Location: Shaker Heights, OH
Elevation: 1007 ft
Nearby Weather Stations

Elev 1007 ft 41.47 °N, 81.56 °W | Updated 7 seconds ago

Partly Cloudy
Partly Cloudy
67.1 °F
Feels Like 67.1 °F
N
2.0
Wind Variable Wind from WSW
Gusts 5.0 mph

Today
High -- | Low -- °F
--% Chance of Precip.
Yesterday
High -- | Low -- °F
Precip. -- in
5:58 AM 9:03 PM
Waning Gibbous, 85% visible
Pressure 30.13 in
Visibility 10.0 miles
Clouds Mostly Cloudy 25000 ft
Dew Point 56 °F
Humidity 68%
Rainfall 0.00 in
Snow Depth Not available.
UV 2 out of 12
Pollen 4.00 out of 12
Air Quality Not available.
Flu Activity Not available.
METAR KBKL 051253Z 17007KT 10SM BKN250 20/12 A3013 RMK AO2 SLP201 T02000117

More Conditions Fewer Conditions

Pressure 30.13 in
Visibility 10.0 miles
Clouds Mostly Cloudy 25000 ft
Dew Point 56 °F
Humidity 68%
Rainfall 0.00 in
Snow Depth Not available.
UV 2 out of 12
Pollen 4.00 out of 12
Air Quality Not available.
Flu Activity Not available.
METAR KBKL 051253Z 17007KT 10SM BKN250 20/12 A3013 RMK AO2 SLP201 T02000117

More Conditions Fewer Conditions

10-Day Weather Forecast

×

Almanac

Astronomy

Jul. 05, 2015 Rise Set
Actual Time
Civil Twilight
Nautical Twilight
Astronomical Twilight
Moon
Length of Visible Light
Length of Day
Tomorrow will be .
, % of the Moon is Illuminated

Today's Extremes

State Highs State Lows

Community

WunderPhotos

Upload Photos

1,835,255 photos uploaded!

WunderBlogs® & News

Nearby

Air Quality

  Air Quality AQ Index Pollutant
Not available.

Snow Depth

Station Depth Elevation

Earthquake Activity

City Distance Mag. Time & Date
Minimum magnitude displayed is 2.5.

Coastal Water Temperatures

Place Temperature

Stations

Nearby Weather Stations

Station Location Temp. Windchill Dew Point Humidity Wind Precip. Elev Updated Type